KEEN

Dillant-Hopkins Airport

Keene, New Hampshire, USA
METAR KEEN 121856Z AUTO 31010G17KT 10SM BKN042 00/M09 A3008 RMK AO2 SLP210 T00001094 FZRANO $
Observed Flight Rules
Dec-12 @ 18:56 UTC (42 minutes ago) Visual Flight Rules
Wind Visibility Clouds
310° at 10 knots
 Gusting to 17 knots
10 miles
  • Broken at 4,200' AGL
Temperatures Readings
Current 0°C / 32°F
Dewpoint -9°C / 16°F
Humidity 51%
Altimeter 30.08" Hg
Pressure 1021 hPa
Elevation 149
METAR KEEN 121856Z AUTO 31010G17KT 10SM BKN042 00/M09 A3008 RMK AO2 SLP210 T00001094 FZRANO $
Observed Flight Rules
Dec-12 @ 18:56 UTC
(42 minutes ago)
VFR
Wind Visibility
310° at 10 knots
 Gusting to 17 knots
10 miles
Clouds
  • Broken at 4,200' AGL
Temperature Dewpoint
0°C / 32°F -9°C / 16°F
Humidity Altimeter Pressure
51% 30.08" Hg 1021 hPa